createdAt,value
2024-02-28T00:02:05.216Z,19.00
2024-02-28T00:04:31.951Z,18.37
2024-02-28T00:06:59.248Z,16.83
2024-02-28T00:09:26.061Z,17.80
2024-02-28T00:11:52.779Z,18.63
2024-02-28T00:14:19.746Z,17.70
2024-02-28T00:16:47.490Z,17.07
2024-02-28T00:19:14.801Z,17.60
2024-02-28T00:21:42.465Z,18.53
2024-02-28T00:24:10.518Z,17.03
2024-02-28T00:26:37.555Z,17.00
2024-02-28T00:29:04.383Z,17.70
2024-02-28T00:31:31.111Z,18.87
2024-02-28T00:33:57.975Z,17.60
2024-02-28T00:36:24.796Z,18.50
2024-02-28T00:38:51.542Z,18.13
2024-02-28T00:41:18.526Z,16.97
2024-02-28T00:43:45.205Z,16.03
2024-02-28T00:46:14.670Z,16.90
2024-02-28T00:48:41.478Z,16.57
2024-02-28T00:51:09.417Z,16.37
2024-02-28T00:53:36.239Z,15.87
2024-02-28T00:56:03.533Z,15.40
2024-02-28T00:58:31.290Z,16.47
2024-02-28T01:00:58.458Z,16.00
2024-02-28T01:03:25.539Z,15.70
2024-02-28T01:05:52.555Z,14.77
2024-02-28T01:08:19.400Z,15.10
2024-02-28T01:10:46.805Z,15.47
2024-02-28T01:13:13.574Z,15.73
2024-02-28T01:15:43.369Z,16.10
2024-02-28T01:18:11.709Z,15.63
2024-02-28T01:20:38.778Z,15.47
2024-02-28T01:23:05.844Z,15.47
2024-02-28T01:25:32.618Z,15.63
2024-02-28T01:27:59.668Z,14.80
2024-02-28T01:30:26.662Z,15.00
2024-02-28T01:32:53.549Z,14.90
2024-02-28T01:35:20.318Z,15.57
2024-02-28T01:37:47.083Z,14.80
2024-02-28T01:40:14.196Z,14.27
2024-02-28T01:42:41.081Z,14.67
2024-02-28T01:45:10.380Z,14.40
2024-02-28T01:47:38.188Z,15.03
2024-02-28T01:50:05.934Z,14.53
2024-02-28T01:52:33.074Z,14.47
2024-02-28T01:55:00.169Z,15.00
2024-02-28T01:57:28.263Z,15.90
2024-02-28T01:59:56.446Z,14.53
2024-02-28T02:02:23.866Z,15.03
2024-02-28T02:04:53.903Z,14.97
2024-02-28T02:07:21.046Z,14.33
2024-02-28T02:09:47.886Z,15.30
2024-02-28T02:12:15.671Z,15.77
2024-02-28T02:14:42.378Z,15.47
2024-02-28T02:17:09.155Z,15.87
2024-02-28T02:19:36.026Z,14.70
2024-02-28T02:22:06.547Z,16.73
2024-02-28T02:24:33.554Z,15.10
2024-02-28T02:27:00.804Z,14.57
2024-02-28T02:29:29.452Z,15.17
2024-02-28T02:31:56.162Z,15.03
2024-02-28T02:34:22.906Z,14.93
2024-02-28T02:36:49.667Z,13.83
2024-02-28T02:39:16.477Z,16.07
2024-02-28T02:41:43.411Z,14.63
2024-02-28T02:44:10.272Z,14.23
2024-02-28T02:46:37.030Z,14.13
2024-02-28T02:49:03.729Z,13.83
2024-02-28T02:51:30.440Z,13.50
2024-02-28T02:53:57.141Z,14.73
2024-02-28T02:56:23.895Z,15.37
2024-02-28T02:58:50.612Z,16.23
2024-02-28T03:01:17.419Z,15.20
2024-02-28T03:03:44.287Z,15.20
2024-02-28T03:06:11.313Z,16.53
2024-02-28T03:08:38.129Z,13.87
2024-02-28T03:11:08.091Z,16.60
2024-02-28T03:13:35.094Z,15.97
2024-02-28T03:16:01.890Z,16.30
2024-02-28T03:18:28.675Z,16.97
2024-02-28T03:20:55.373Z,15.83
2024-02-28T03:23:22.062Z,16.30
2024-02-28T03:25:48.850Z,15.73
2024-02-28T03:28:15.542Z,16.80
2024-02-28T03:30:42.818Z,15.80
2024-02-28T03:33:10.571Z,15.27
2024-02-28T03:35:37.328Z,16.33
2024-02-28T03:38:04.243Z,15.67
2024-02-28T03:40:30.968Z,15.23
2024-02-28T03:42:57.779Z,14.57
2024-02-28T03:45:24.579Z,15.67
2024-02-28T03:47:51.320Z,13.83
2024-02-28T03:50:18.026Z,13.77
2024-02-28T03:52:44.693Z,14.73
2024-02-28T03:55:11.488Z,13.17
2024-02-28T03:57:38.294Z,13.73
2024-02-28T04:00:05.925Z,14.47
2024-02-28T04:02:32.773Z,14.33
2024-02-28T04:04:59.498Z,14.70
2024-02-28T04:07:26.185Z,14.60
2024-02-28T04:09:52.874Z,13.83
2024-02-28T04:12:19.643Z,14.23
2024-02-28T04:14:46.324Z,14.13
2024-02-28T04:17:13.166Z,14.43
2024-02-28T04:19:40.766Z,13.63
2024-02-28T04:22:07.529Z,14.67
2024-02-28T04:24:34.350Z,15.20
2024-02-28T04:27:01.202Z,14.63
2024-02-28T04:29:27.926Z,14.20
2024-02-28T04:31:54.609Z,14.73
2024-02-28T04:34:21.292Z,15.27
2024-02-28T04:36:48.047Z,14.03
2024-02-28T04:39:14.799Z,14.17
2024-02-28T04:41:41.512Z,13.57
2024-02-28T04:44:08.664Z,14.27
2024-02-28T04:46:35.849Z,14.03
2024-02-28T04:49:02.618Z,13.80
2024-02-28T04:51:29.379Z,13.60
2024-02-28T04:53:56.039Z,15.17
2024-02-28T04:56:22.824Z,15.10
2024-02-28T04:58:49.675Z,15.03
2024-02-28T05:01:18.899Z,16.07
2024-02-28T05:03:47.630Z,15.27
2024-02-28T05:06:14.448Z,14.70
2024-02-28T05:08:41.206Z,15.60
2024-02-28T05:11:07.981Z,14.73
2024-02-28T05:13:36.395Z,15.80
2024-02-28T05:16:03.440Z,14.87
2024-02-28T05:18:30.345Z,15.97
2024-02-28T05:20:57.277Z,14.60
2024-02-28T05:23:24.365Z,15.00
2024-02-28T05:25:51.121Z,15.07
2024-02-28T05:28:17.839Z,15.17
2024-02-28T05:30:46.883Z,15.67
2024-02-28T05:33:15.536Z,14.63
2024-02-28T05:35:42.293Z,16.00
2024-02-28T05:38:09.019Z,14.10
2024-02-28T05:40:35.726Z,14.27
2024-02-28T05:43:03.155Z,14.57
2024-02-28T05:45:29.942Z,14.50
2024-02-28T05:47:56.720Z,15.40
2024-02-28T05:50:23.458Z,14.77
2024-02-28T05:52:50.167Z,14.57
2024-02-28T05:55:16.962Z,14.90
2024-02-28T05:57:43.670Z,14.80
2024-02-28T06:00:11.440Z,16.20
2024-02-28T06:02:38.949Z,14.73
2024-02-28T06:05:06.411Z,15.83
2024-02-28T06:07:33.143Z,15.80
2024-02-28T06:10:00.066Z,15.93
2024-02-28T06:12:26.876Z,15.83
2024-02-28T06:14:53.568Z,16.43
2024-02-28T06:17:22.605Z,16.63
2024-02-28T06:19:49.302Z,15.67
2024-02-28T06:22:16.243Z,15.07
2024-02-28T06:24:43.022Z,15.63
2024-02-28T06:27:13.606Z,15.90
2024-02-28T06:29:43.319Z,14.60
2024-02-28T06:32:10.551Z,14.90
2024-02-28T06:34:37.384Z,14.60
2024-02-28T06:37:04.908Z,14.80
2024-02-28T06:39:31.763Z,14.23
2024-02-28T06:41:58.546Z,14.60
2024-02-28T06:44:25.284Z,14.80
2024-02-28T06:46:51.992Z,13.70
2024-02-28T06:49:18.664Z,14.60
2024-02-28T06:51:46.313Z,14.67
2024-02-28T06:54:13.290Z,14.40
2024-02-28T06:56:40.048Z,15.30
2024-02-28T06:59:08.025Z,13.73
2024-02-28T07:01:35.004Z,13.33
2024-02-28T07:04:02.005Z,15.03
2024-02-28T07:06:28.899Z,13.00
2024-02-28T07:08:55.636Z,13.43
2024-02-28T07:11:22.761Z,13.60
2024-02-28T07:13:49.573Z,13.27
2024-02-28T07:16:16.467Z,12.67
2024-02-28T07:18:43.286Z,12.80
2024-02-28T07:21:10.157Z,12.97
2024-02-28T07:23:40.904Z,12.70
2024-02-28T07:26:16.195Z,12.90
2024-02-28T07:28:50.677Z,12.60
2024-02-28T07:31:18.355Z,12.67
2024-02-28T07:33:45.414Z,13.00
2024-02-28T07:36:12.738Z,13.10
2024-02-28T07:38:39.571Z,11.90
2024-02-28T07:41:06.293Z,12.63
2024-02-28T07:43:37.992Z,12.00
2024-02-28T07:46:12.061Z,12.97
2024-02-28T07:48:39.390Z,12.17
2024-02-28T07:51:06.997Z,12.33
2024-02-28T07:53:33.930Z,12.70
2024-02-28T07:56:00.709Z,12.80
2024-02-28T07:58:27.402Z,13.87
2024-02-28T08:00:54.709Z,12.07
2024-02-28T08:03:21.948Z,14.17
2024-02-28T08:05:49.693Z,12.87
2024-02-28T08:08:16.444Z,13.33
2024-02-28T08:10:43.291Z,13.13
2024-02-28T08:13:10.097Z,12.50
2024-02-28T08:15:36.960Z,13.00
2024-02-28T08:18:04.627Z,12.10
2024-02-28T08:20:31.386Z,13.43
2024-02-28T08:22:59.425Z,11.83
2024-02-28T08:25:26.115Z,13.17
2024-02-28T08:27:52.919Z,11.70
2024-02-28T08:30:19.705Z,11.13
2024-02-28T08:32:46.414Z,12.33
2024-02-28T08:35:13.280Z,10.80
2024-02-28T08:37:40.982Z,11.60
2024-02-28T08:40:09.507Z,11.80
2024-02-28T08:42:36.373Z,10.57
2024-02-28T08:45:04.613Z,12.07
2024-02-28T08:47:31.609Z,12.43
2024-02-28T08:49:58.548Z,11.17
2024-02-28T08:52:25.426Z,12.20
2024-02-28T08:54:52.243Z,11.77
2024-02-28T08:57:21.464Z,11.33
2024-02-28T08:59:50.295Z,11.67
2024-02-28T09:02:18.531Z,11.63
2024-02-28T09:04:45.382Z,10.93
2024-02-28T09:07:12.929Z,10.53
2024-02-28T09:09:43.228Z,10.27
2024-02-28T09:12:10.057Z,11.40
2024-02-28T09:14:36.724Z,9.83
2024-02-28T09:17:06.311Z,10.23
2024-02-28T09:19:33.121Z,9.97
2024-02-28T09:22:00.216Z,9.87
2024-02-28T09:24:27.736Z,8.80
2024-02-28T09:26:54.695Z,8.97
2024-02-28T09:29:21.525Z,10.17
2024-02-28T09:31:48.269Z,9.43
2024-02-28T09:34:15.211Z,10.53
2024-02-28T09:36:48.635Z,10.83
2024-02-28T09:39:18.144Z,10.97
2024-02-28T09:41:48.689Z,10.40
2024-02-28T09:44:16.989Z,9.77
2024-02-28T09:46:44.334Z,10.90
2024-02-28T09:49:12.054Z,10.50
2024-02-28T09:51:38.891Z,11.53
2024-02-28T09:54:06.591Z,9.97
2024-02-28T09:56:34.225Z,11.07
2024-02-28T09:59:04.064Z,11.63
2024-02-28T10:01:31.727Z,12.60
2024-02-28T10:04:01.786Z,12.43
2024-02-28T10:06:28.679Z,10.70
2024-02-28T10:08:55.412Z,11.00
2024-02-28T10:11:25.620Z,10.77
2024-02-28T10:13:56.077Z,10.23
2024-02-28T10:16:24.647Z,10.97
2024-02-28T10:18:51.536Z,10.63
2024-02-28T10:21:18.900Z,11.37
2024-02-28T10:23:46.592Z,12.30
2024-02-28T10:26:13.776Z,9.73
2024-02-28T10:28:41.629Z,10.67
2024-02-28T10:31:08.908Z,10.20
2024-02-28T10:33:37.161Z,11.53
